createdAt,value
2023-01-17T00:02:23.643Z,7.20
2023-01-17T00:05:10.273Z,7.70
2023-01-17T00:07:56.919Z,7.20
2023-01-17T00:10:27.659Z,6.90
2023-01-17T00:13:00.296Z,7.30
2023-01-17T00:15:30.873Z,7.10
2023-01-17T00:17:59.568Z,7.50
2023-01-17T00:20:48.506Z,8.20
2023-01-17T00:23:44.744Z,7.70
2023-01-17T00:26:16.866Z,7.60
2023-01-17T00:28:46.719Z,8.40
2023-01-17T00:31:15.880Z,8.80
2023-01-17T00:33:43.808Z,8.10
2023-01-17T00:36:12.275Z,8.00
2023-01-17T00:38:40.840Z,9.10
2023-01-17T00:41:11.689Z,7.70
2023-01-17T00:43:58.557Z,8.10
2023-01-17T00:46:45.412Z,8.80
2023-01-17T00:49:32.031Z,10.90
2023-01-17T00:52:19.743Z,8.30
2023-01-17T00:55:06.155Z,8.90
2023-01-17T00:57:52.386Z,8.20
2023-01-17T01:00:39.254Z,8.10
2023-01-17T01:03:30.335Z,9.00
2023-01-17T01:06:16.677Z,11.80
2023-01-17T01:09:03.216Z,10.20
2023-01-17T01:11:49.535Z,10.90
2023-01-17T01:14:36.453Z,10.50
2023-01-17T01:17:22.757Z,13.90
2023-01-17T01:20:08.866Z,11.30
2023-01-17T01:22:55.348Z,12.70
2023-01-17T01:25:41.811Z,11.50
2023-01-17T01:28:33.166Z,12.90
2023-01-17T01:31:20.788Z,10.10
2023-01-17T01:33:50.983Z,11.20
2023-01-17T01:36:20.311Z,11.20
2023-01-17T01:38:48.290Z,11.50
2023-01-17T01:41:16.126Z,11.80
2023-01-17T01:43:55.002Z,10.80
2023-01-17T01:46:37.348Z,12.20
2023-01-17T01:49:24.869Z,11.40
2023-01-17T01:51:55.850Z,10.60
2023-01-17T01:54:28.358Z,11.20
2023-01-17T01:56:59.197Z,11.10
2023-01-17T01:59:27.729Z,11.30
2023-01-17T02:01:58.260Z,11.80
2023-01-17T02:04:28.519Z,12.50
2023-01-17T02:07:06.693Z,10.50
2023-01-17T02:09:34.676Z,11.30
2023-01-17T02:12:04.440Z,12.00
2023-01-17T02:14:32.325Z,11.50
2023-01-17T02:17:16.739Z,11.50
2023-01-17T02:20:03.705Z,12.00
2023-01-17T02:22:51.481Z,11.60
2023-01-17T02:25:19.305Z,11.20
2023-01-17T02:27:56.071Z,11.90
2023-01-17T02:30:37.454Z,12.40
2023-01-17T02:33:08.608Z,11.50
2023-01-17T02:35:56.264Z,12.60
2023-01-17T02:39:04.539Z,11.40
2023-01-17T02:41:44.789Z,12.70
2023-01-17T02:44:19.902Z,11.90
2023-01-17T02:46:59.309Z,12.30
2023-01-17T02:49:31.851Z,12.50
2023-01-17T02:52:23.412Z,12.10
2023-01-17T02:54:57.260Z,12.30
2023-01-17T02:57:46.477Z,12.30
2023-01-17T03:00:29.615Z,12.40
2023-01-17T03:03:16.096Z,12.30
2023-01-17T03:06:02.300Z,11.70
2023-01-17T03:08:31.044Z,12.20
2023-01-17T03:10:59.156Z,12.50
2023-01-17T03:13:27.223Z,12.70
2023-01-17T03:15:55.457Z,12.50
2023-01-17T03:18:24.202Z,12.50
2023-01-17T03:20:52.103Z,12.10
2023-01-17T03:23:20.116Z,13.20
2023-01-17T03:25:48.110Z,12.50
2023-01-17T03:28:15.920Z,13.20
2023-01-17T03:30:43.902Z,13.50
2023-01-17T03:33:11.823Z,13.10
2023-01-17T03:35:39.753Z,14.40
2023-01-17T03:38:07.698Z,13.00
2023-01-17T03:40:35.554Z,13.30
2023-01-17T03:43:03.421Z,13.80
2023-01-17T03:45:31.419Z,13.50
2023-01-17T03:48:00.056Z,13.70
2023-01-17T03:50:28.140Z,14.10
2023-01-17T03:52:56.044Z,13.60
2023-01-17T03:55:24.093Z,13.10
2023-01-17T03:57:52.197Z,14.20
2023-01-17T04:05:05.264Z,14.10
2023-01-17T04:07:33.564Z,14.60
2023-01-17T04:10:01.864Z,13.50
2023-01-17T04:12:29.779Z,13.40
2023-01-17T04:14:57.578Z,13.60
2023-01-17T04:17:25.946Z,14.30
2023-01-17T04:19:53.976Z,14.70
2023-01-17T04:22:21.801Z,14.80
2023-01-17T04:24:49.658Z,13.90
2023-01-17T04:27:17.537Z,13.90
2023-01-17T04:29:46.760Z,13.20
2023-01-17T04:34:37.137Z,13.40
2023-01-17T04:37:04.989Z,14.30
2023-01-17T04:39:33.013Z,13.80
2023-01-17T04:42:00.932Z,13.90
2023-01-17T04:44:28.772Z,13.50
2023-01-17T04:46:56.721Z,14.10
2023-01-17T04:49:24.520Z,13.50
2023-01-17T04:51:52.479Z,12.90
2023-01-17T04:54:20.281Z,13.30
2023-01-17T04:56:48.994Z,14.20
2023-01-17T04:59:16.902Z,13.60
2023-01-17T05:01:44.832Z,13.00
2023-01-17T05:04:12.697Z,13.40
2023-01-17T05:06:40.644Z,12.60
2023-01-17T05:09:08.634Z,14.10
2023-01-17T05:11:36.651Z,12.20
2023-01-17T05:14:04.837Z,12.80
2023-01-17T05:16:40.963Z,13.30
2023-01-17T05:19:08.877Z,14.00
2023-01-17T05:21:37.048Z,13.30
2023-01-17T05:24:54.692Z,14.50
2023-01-17T05:27:22.609Z,13.90
2023-01-17T05:29:50.600Z,14.50
2023-01-17T05:32:18.514Z,14.90
2023-01-17T05:34:46.355Z,15.70
2023-01-17T05:37:14.175Z,14.80
2023-01-17T05:39:42.093Z,14.80
2023-01-17T05:42:09.923Z,14.70
2023-01-17T05:44:38.750Z,14.00
2023-01-17T05:47:06.663Z,14.30
2023-01-17T05:49:34.827Z,14.10
2023-01-17T05:52:02.662Z,14.20
2023-01-17T05:54:30.570Z,14.20
2023-01-17T05:56:58.442Z,13.60
2023-01-17T05:59:36.469Z,14.50
2023-01-17T06:02:05.324Z,14.70
2023-01-17T06:04:33.367Z,15.50
2023-01-17T06:07:01.314Z,17.50
2023-01-17T06:09:29.225Z,15.40
2023-01-17T06:11:57.115Z,13.60
2023-01-17T06:14:25.325Z,17.90
2023-01-17T06:16:53.408Z,25.90
2023-01-17T06:19:21.530Z,24.30
2023-01-17T06:21:49.324Z,13.30
2023-01-17T06:24:17.172Z,13.50
2023-01-17T06:26:45.104Z,13.90
2023-01-17T06:29:13.569Z,13.30
2023-01-17T06:31:41.510Z,13.50
2023-01-17T06:34:09.338Z,13.20
2023-01-17T06:36:37.388Z,12.50
2023-01-17T06:39:05.400Z,12.90
2023-01-17T06:41:33.483Z,12.80
2023-01-17T06:44:01.392Z,12.40
2023-01-17T06:46:29.573Z,12.20
2023-01-17T06:48:57.585Z,12.50
2023-01-17T06:51:25.708Z,12.80
2023-01-17T06:53:53.898Z,12.90
2023-01-17T06:56:21.786Z,13.30
2023-01-17T06:58:52.846Z,13.40
2023-01-17T07:01:20.954Z,14.90
2023-01-17T07:03:49.044Z,14.10
2023-01-17T07:06:17.024Z,14.90
2023-01-17T07:08:45.097Z,13.50
2023-01-17T07:11:13.630Z,14.00
2023-01-17T07:13:41.646Z,14.10
2023-01-17T07:16:09.712Z,12.90
2023-01-17T07:18:40.493Z,12.80
2023-01-17T07:21:15.473Z,16.40
2023-01-17T07:23:43.494Z,12.40
2023-01-17T07:26:11.450Z,12.00
2023-01-17T07:28:39.709Z,10.50
2023-01-17T07:31:08.647Z,10.40
2023-01-17T07:33:36.701Z,10.10
2023-01-17T07:36:07.429Z,10.30
2023-01-17T07:38:35.855Z,11.00
2023-01-17T07:41:03.845Z,11.40
2023-01-17T07:43:31.878Z,13.10
2023-01-17T07:46:02.106Z,12.20
2023-01-17T07:48:30.778Z,12.50
2023-01-17T07:50:58.843Z,12.50
2023-01-17T07:53:29.700Z,11.30
2023-01-17T07:56:02.673Z,12.10
2023-01-17T07:58:31.981Z,11.20
2023-01-17T08:01:08.589Z,11.90
2023-01-17T08:03:40.091Z,9.80
2023-01-17T08:06:20.363Z,10.10
2023-01-17T08:08:48.366Z,9.90
2023-01-17T08:11:16.357Z,9.10
2023-01-17T08:13:44.373Z,9.50
2023-01-17T08:16:13.394Z,7.70
2023-01-17T08:18:41.640Z,7.40
2023-01-17T08:21:16.884Z,6.90
2023-01-17T08:23:52.267Z,6.40
2023-01-17T08:26:22.157Z,7.20
2023-01-17T08:29:00.328Z,7.30
2023-01-17T08:31:30.639Z,7.30
2023-01-17T08:33:58.898Z,6.20
2023-01-17T08:36:28.765Z,7.10
2023-01-17T08:38:57.237Z,6.60
2023-01-17T08:41:27.747Z,7.00
2023-01-17T08:43:55.671Z,6.30
2023-01-17T08:46:24.414Z,6.90
2023-01-17T08:48:58.759Z,5.60
2023-01-17T08:51:27.678Z,6.00
2023-01-17T08:53:56.719Z,6.00
2023-01-17T08:56:26.279Z,6.20
2023-01-17T08:58:54.460Z,7.00
2023-01-17T09:01:22.605Z,6.30
2023-01-17T09:03:51.584Z,6.10
2023-01-17T09:06:19.836Z,6.50
2023-01-17T09:09:07.013Z,6.30
2023-01-17T09:11:34.997Z,6.40
2023-01-17T09:14:03.718Z,6.60
2023-01-17T09:16:33.418Z,6.30
2023-01-17T09:19:01.616Z,6.70
2023-01-17T09:21:29.687Z,6.10
2023-01-17T09:23:57.581Z,6.80
2023-01-17T09:26:28.885Z,6.60
2023-01-17T09:28:58.726Z,6.90
2023-01-17T09:31:27.169Z,6.30
2023-01-17T09:33:57.102Z,5.60
2023-01-17T09:36:29.297Z,5.80
2023-01-17T09:38:59.117Z,6.10
2023-01-17T09:41:36.324Z,6.40
2023-01-17T09:44:16.511Z,7.80
2023-01-17T09:46:47.856Z,6.90
2023-01-17T09:49:41.704Z,6.80
2023-01-17T09:52:16.551Z,7.00
2023-01-17T09:54:47.863Z,7.30
2023-01-17T09:57:40.767Z,7.80
2023-01-17T10:00:31.480Z,7.00
2023-01-17T10:03:23.933Z,7.20
2023-01-17T10:05:54.672Z,6.80
2023-01-17T10:08:50.658Z,6.80
2023-01-17T10:11:49.288Z,7.50
2023-01-17T10:14:22.637Z,7.60
2023-01-17T10:17:08.755Z,6.80
2023-01-17T10:20:14.212Z,8.10
2023-01-17T10:23:17.843Z,7.70
2023-01-17T10:25:50.605Z,8.10
2023-01-17T10:28:31.176Z,7.60
2023-01-17T10:31:12.968Z,8.50
2023-01-17T10:33:50.133Z,7.80
2023-01-17T10:36:22.586Z,7.70
2023-01-17T10:39:04.576Z,7.00
2023-01-17T10:41:43.725Z,7.40
2023-01-17T10:44:53.912Z,7.80
2023-01-17T10:47:23.899Z,6.90
2023-01-17T10:49:54.341Z,7.50
2023-01-17T10:52:50.782Z,7.80
2023-01-17T10:55:41.926Z,7.10
2023-01-17T10:58:13.505Z,7.30
2023-01-17T11:04:39.128Z,7.00
2023-01-17T11:07:12.647Z,7.00
2023-01-17T11:09:46.570Z,6.80
2023-01-17T11:12:30.030Z,7.40
2023-01-17T11:15:10.153Z,7.60
2023-01-17T11:17:52.934Z,7.40
2023-01-17T11:20:37.142Z,8.00
2023-01-17T11:23:13.251Z,8.70
2023-01-17T11:25:53.042Z,7.90
2023-01-17T11:28:32.663Z,8.20
2023-01-17T11:31:16.599Z,7.90
2023-01-17T11:33:56.910Z,8.30
2023-01-17T11:36:29.056Z,8.20
2023-01-17T11:38:58.556Z,9.10
2023-01-17T11:41:28.293Z,8.20
2023-01-17T11:43:58.583Z,8.10
2023-01-17T11:46:30.480Z,7.50
2023-01-17T11:49:01.157Z,8.60
2023-01-17T11:51:35.257Z,7.80
2023-01-17T11:54:12.278Z,8.50
2023-01-17T11:57:16.694Z,7.50
2023-01-17T11:59:45.354Z,7.90
2023-01-17T12:02:48.419Z,7.60
2023-01-17T12:05:39.251Z,8.00
2023-01-17T12:08:33.031Z,7.50
2023-01-17T12:11:05.650Z,7.20
2023-01-17T12:14:02.861Z,7.30
2023-01-17T12:16:45.065Z,7.20
2023-01-17T12:19:33.563Z,7.30
2023-01-17T12:22:07.859Z,7.70
2023-01-17T12:24:45.642Z,7.40
2023-01-17T12:27:18.008Z,7.70
2023-01-17T12:30:10.809Z,7.30
2023-01-17T12:33:03.696Z,7.80
2023-01-17T12:35:55.693Z,7.60
2023-01-17T12:38:32.871Z,7.90
2023-01-17T12:41:10.317Z,7.70
2023-01-17T12:43:41.604Z,10.00
2023-01-17T12:46:13.250Z,10.80
2023-01-17T12:48:42.263Z,9.20
2023-01-17T12:51:19.173Z,8.90
2023-01-17T12:53:56.512Z,8.00
2023-01-17T12:56:38.512Z,8.70
2023-01-17T12:59:28.137Z,8.20
2023-01-17T13:01:58.933Z,7.80
2023-01-17T13:04:34.417Z,8.30
2023-01-17T13:07:13.286Z,8.00
2023-01-17T13:10:07.563Z,8.70
2023-01-17T13:12:38.545Z,7.70
2023-01-17T13:15:16.922Z,8.60
2023-01-17T13:17:51.223Z,8.30
2023-01-17T13:20:28.845Z,8.00
2023-01-17T13:23:07.906Z,8.40
2023-01-17T13:25:46.191Z,8.10
2023-01-17T13:28:24.679Z,7.20
2023-01-17T13:31:18.586Z,7.50
2023-01-17T13:33:51.235Z,7.30
2023-01-17T13:36:34.213Z,7.40
2023-01-17T13:39:36.462Z,7.30
2023-01-17T13:42:27.981Z,7.10
2023-01-17T13:44:58.091Z,7.40
2023-01-17T13:47:26.209Z,6.90
2023-01-17T13:49:56.624Z,6.50
2023-01-17T13:52:24.623Z,7.10
2023-01-17T13:55:04.491Z,7.10
2023-01-17T13:57:46.317Z,7.50
2023-01-17T14:00:21.734Z,7.50
2023-01-17T14:02:51.488Z,7.20
2023-01-17T14:05:22.154Z,7.10
2023-01-17T14:08:17.996Z,6.80
2023-01-17T14:10:52.624Z,9.00
2023-01-17T14:13:40.168Z,6.90
2023-01-17T14:16:28.159Z,8.20
2023-01-17T14:18:56.468Z,8.10
2023-01-17T14:21:27.485Z,8.00
2023-01-17T14:24:19.663Z,7.90
2023-01-17T14:26:58.004Z,7.30
2023-01-17T14:29:46.648Z,7.00
2023-01-17T14:32:23.367Z,8.20
2023-01-17T14:34:53.397Z,8.10
2023-01-17T14:37:21.301Z,8.30
2023-01-17T14:39:51.060Z,8.00
2023-01-17T14:42:22.622Z,7.80
2023-01-17T14:45:15.316Z,8.40
2023-01-17T14:47:44.696Z,7.70
2023-01-17T14:50:23.516Z,7.30
2023-01-17T14:53:12.891Z,7.70
2023-01-17T14:55:57.020Z,7.60
2023-01-17T14:58:29.618Z,8.60
2023-01-17T15:01:01.688Z,8.30
2023-01-17T15:03:41.742Z,8.40
2023-01-17T15:06:27.767Z,8.40
2023-01-17T15:08:56.102Z,9.80
2023-01-17T15:11:26.599Z,9.20
2023-01-17T15:13:58.208Z,9.40
2023-01-17T15:16:34.125Z,9.90
2023-01-17T15:19:10.619Z,9.40
2023-01-17T15:21:42.992Z,11.80
2023-01-17T15:24:20.245Z,10.30
2023-01-17T15:26:49.218Z,13.00
2023-01-17T15:29:21.397Z,14.90
2023-01-17T15:31:52.664Z,10.20
2023-01-17T15:34:28.257Z,10.30
2023-01-17T15:36:59.592Z,11.00
2023-01-17T15:39:33.643Z,9.40
2023-01-17T15:42:19.553Z,9.60
2023-01-17T15:44:53.328Z,10.70
2023-01-17T15:47:38.939Z,40.20
2023-01-17T15:50:30.860Z,18.00
2023-01-17T15:53:13.296Z,14.50
2023-01-17T15:55:48.141Z,13.50
2023-01-17T15:58:25.253Z,13.30
2023-01-17T16:00:54.107Z,12.10
2023-01-17T16:03:31.091Z,13.50
2023-01-17T16:06:01.127Z,17.40
2023-01-17T16:08:29.236Z,23.70
2023-01-17T16:11:02.218Z,22.30
2023-01-17T16:13:43.282Z,17.40
2023-01-17T16:16:20.574Z,17.20
2023-01-17T16:18:50.945Z,14.80
2023-01-17T16:21:20.902Z,13.80
2023-01-17T16:23:49.333Z,14.70
2023-01-17T16:26:17.545Z,15.50
2023-01-17T16:28:45.987Z,15.30
2023-01-17T16:31:14.141Z,16.00
2023-01-17T16:33:46.107Z,17.40
2023-01-17T16:38:44.855Z,15.60
2023-01-17T16:41:13.007Z,21.80
2023-01-17T16:43:40.878Z,28.80
2023-01-17T16:46:11.525Z,28.10
2023-01-17T16:48:39.534Z,18.10
2023-01-17T16:51:08.395Z,16.90
2023-01-17T16:53:37.506Z,16.20
2023-01-17T16:56:13.663Z,23.20
2023-01-17T16:58:41.696Z,18.20
2023-01-17T17:01:17.304Z,15.70
2023-01-17T17:03:45.275Z,15.30
2023-01-17T17:06:13.709Z,15.00
2023-01-17T17:08:43.151Z,14.70
2023-01-17T17:11:19.071Z,14.50
2023-01-17T17:13:49.165Z,14.50
2023-01-17T17:16:18.897Z,14.80
2023-01-17T17:18:54.455Z,16.30
2023-01-17T17:21:23.340Z,17.00
2023-01-17T17:23:57.067Z,19.90
2023-01-17T17:26:27.442Z,21.50
2023-01-17T17:28:55.469Z,21.40
2023-01-17T17:31:24.143Z,20.90
2023-01-17T17:33:52.114Z,24.20
2023-01-17T17:36:20.057Z,26.00
2023-01-17T17:38:51.167Z,24.80
2023-01-17T17:41:27.457Z,27.30
2023-01-17T17:43:56.128Z,30.20
2023-01-17T17:46:25.586Z,33.40
2023-01-17T17:48:53.893Z,34.60
2023-01-17T17:51:31.789Z,36.30
2023-01-17T17:54:02.978Z,34.00
2023-01-17T17:56:33.048Z,32.50
2023-01-17T17:59:02.027Z,30.90
2023-01-17T18:01:30.658Z,31.10
2023-01-17T18:04:03.197Z,33.90
2023-01-17T18:06:31.050Z,39.00
2023-01-17T18:08:59.047Z,46.30
2023-01-17T18:11:28.606Z,37.70
2023-01-17T18:13:58.667Z,41.90
2023-01-17T18:16:41.829Z,40.50
2023-01-17T18:19:16.679Z,39.50
2023-01-17T18:21:45.058Z,36.50
2023-01-17T18:24:15.357Z,39.80
2023-01-17T18:26:48.612Z,39.80
2023-01-17T18:29:17.977Z,39.20
2023-01-17T18:31:47.274Z,38.60
2023-01-17T18:34:21.168Z,42.90
2023-01-17T18:36:50.003Z,50.20
2023-01-17T18:39:21.279Z,46.80
2023-01-17T18:41:49.600Z,50.30
2023-01-17T18:44:21.836Z,46.30
2023-01-17T18:46:52.714Z,45.70
2023-01-17T18:49:21.247Z,43.30
2023-01-17T18:51:51.278Z,44.50
2023-01-17T18:54:20.637Z,46.00
2023-01-17T18:56:48.625Z,44.10
2023-01-17T18:59:18.662Z,47.60
2023-01-17T19:04:37.811Z,47.10
2023-01-17T19:07:05.846Z,48.50
2023-01-17T19:09:34.036Z,46.10
2023-01-17T19:12:11.186Z,45.00
2023-01-17T19:14:39.153Z,44.40
2023-01-17T19:17:07.238Z,43.90
2023-01-17T19:19:35.207Z,41.40
2023-01-17T19:22:04.183Z,43.90
2023-01-17T19:24:32.157Z,42.70
2023-01-17T19:27:00.152Z,44.20
2023-01-17T19:29:29.037Z,43.50
2023-01-17T19:31:57.065Z,45.10
2023-01-17T19:34:25.190Z,44.30
2023-01-17T19:36:55.111Z,43.70
2023-01-17T19:39:25.577Z,39.80
2023-01-17T19:41:53.599Z,41.00
2023-01-17T19:44:21.777Z,41.10
2023-01-17T19:46:49.689Z,42.40
2023-01-17T19:49:23.840Z,41.50
2023-01-17T19:51:52.235Z,39.50
2023-01-17T19:54:20.299Z,39.80
2023-01-17T19:56:48.506Z,39.90
2023-01-17T19:59:16.689Z,39.70
2023-01-17T20:01:44.687Z,39.20
2023-01-17T20:04:12.962Z,39.20
2023-01-17T20:06:40.850Z,37.60
2023-01-17T20:09:08.797Z,36.90
2023-01-17T20:11:37.181Z,36.10
2023-01-17T20:14:07.706Z,33.60
2023-01-17T20:16:37.180Z,45.30
2023-01-17T20:19:05.629Z,55.50
2023-01-17T20:21:34.415Z,48.60
2023-01-17T20:24:05.853Z,50.10
2023-01-17T20:26:35.564Z,50.10
2023-01-17T20:29:17.681Z,51.30
2023-01-17T20:31:46.187Z,41.70
2023-01-17T20:34:16.265Z,36.20
2023-01-17T20:36:44.778Z,39.20
2023-01-17T20:39:14.848Z,37.60
2023-01-17T20:41:44.711Z,37.50
2023-01-17T20:44:15.482Z,36.60
2023-01-17T20:46:43.882Z,38.80
2023-01-17T20:49:15.255Z,37.00
2023-01-17T20:51:45.441Z,38.60
2023-01-17T20:54:15.892Z,37.50
2023-01-17T20:56:46.799Z,37.90
2023-01-17T20:59:34.262Z,36.30
2023-01-17T21:02:05.165Z,37.10
2023-01-17T21:04:33.141Z,39.80
2023-01-17T21:07:01.113Z,38.00
2023-01-17T21:09:29.357Z,34.00
2023-01-17T21:12:01.265Z,36.70
2023-01-17T21:16:57.268Z,31.50
2023-01-17T21:19:25.262Z,35.10
2023-01-17T21:21:53.331Z,36.60
2023-01-17T21:24:21.264Z,35.40
2023-01-17T21:26:51.504Z,36.10
2023-01-17T21:29:19.569Z,35.50
2023-01-17T21:31:47.582Z,37.40
2023-01-17T21:34:15.533Z,37.00
2023-01-17T21:36:43.838Z,36.30
2023-01-17T21:39:16.033Z,38.50
2023-01-17T21:41:47.926Z,36.80
2023-01-17T21:44:19.533Z,36.90
2023-01-17T21:46:48.525Z,39.10
2023-01-17T21:49:17.628Z,36.30
2023-01-17T21:51:53.503Z,34.70
2023-01-17T21:54:46.301Z,36.60
2023-01-17T21:57:41.086Z,35.30
2023-01-17T22:00:16.025Z,35.80
2023-01-17T22:02:45.312Z,37.30
2023-01-17T22:05:14.010Z,37.50
2023-01-17T22:08:04.423Z,36.40
2023-01-17T22:10:44.573Z,36.10
2023-01-17T22:13:17.949Z,36.30
2023-01-17T22:15:46.212Z,38.50
2023-01-17T22:18:15.815Z,41.10
2023-01-17T22:20:43.760Z,37.60
2023-01-17T22:23:11.986Z,41.30
2023-01-17T22:25:41.379Z,38.60
2023-01-17T22:28:10.298Z,40.60
2023-01-17T22:30:39.226Z,36.10
2023-01-17T22:33:07.146Z,37.20
2023-01-17T22:35:35.927Z,38.40
2023-01-17T22:38:04.816Z,38.30
2023-01-17T22:40:36.142Z,39.40
2023-01-17T22:43:06.114Z,39.20
2023-01-17T22:45:35.238Z,40.40
2023-01-17T22:48:03.271Z,41.50
2023-01-17T22:50:31.097Z,41.70
2023-01-17T22:52:59.236Z,42.20
2023-01-17T22:55:28.190Z,41.30
2023-01-17T22:57:56.958Z,42.60
2023-01-17T23:00:25.840Z,42.60
2023-01-17T23:02:53.780Z,43.00
2023-01-17T23:05:22.909Z,42.50
2023-01-17T23:07:51.309Z,42.60
2023-01-17T23:10:39.994Z,43.70
2023-01-17T23:13:11.010Z,44.40
2023-01-17T23:15:58.672Z,44.80
2023-01-17T23:18:45.340Z,45.40
2023-01-17T23:21:13.151Z,43.20
2023-01-17T23:23:42.068Z,43.40
2023-01-17T23:26:10.097Z,43.40
2023-01-17T23:28:41.413Z,44.50
2023-01-17T23:31:12.689Z,45.00
2023-01-17T23:33:41.977Z,47.10
2023-01-17T23:36:10.042Z,45.40
2023-01-17T23:38:44.074Z,44.90
2023-01-17T23:41:30.807Z,44.10
2023-01-17T23:43:59.191Z,41.70
2023-01-17T23:46:30.567Z,43.60
2023-01-17T23:48:59.687Z,43.80
2023-01-17T23:51:29.923Z,41.10
2023-01-17T23:54:05.551Z,43.20
2023-01-17T23:56:33.551Z,44.40
2023-01-17T23:59:01.579Z,43.30
